createdAt,value
2022-11-24T00:01:15.455Z,12.60
2022-11-24T00:03:44.077Z,14.20
2022-11-24T00:06:14.316Z,12.17
2022-11-24T00:08:44.278Z,11.70
2022-11-24T00:11:17.891Z,13.73
2022-11-24T00:13:45.932Z,12.33
2022-11-24T00:16:28.292Z,12.10
2022-11-24T00:18:57.664Z,11.87
2022-11-24T00:21:26.436Z,11.00
2022-11-24T00:23:54.009Z,12.07
2022-11-24T00:26:27.329Z,12.37
2022-11-24T00:28:56.611Z,12.10
2022-11-24T00:31:26.081Z,12.30
2022-11-24T00:33:56.245Z,11.17
2022-11-24T00:36:26.007Z,12.50
2022-11-24T00:39:01.673Z,11.90
2022-11-24T00:41:29.777Z,12.30
2022-11-24T00:43:57.905Z,12.80
2022-11-24T00:46:25.824Z,12.60
2022-11-24T00:48:53.885Z,12.63
2022-11-24T00:51:24.632Z,12.87
2022-11-24T00:53:51.593Z,12.80
2022-11-24T00:56:18.820Z,12.27
2022-11-24T00:58:45.886Z,11.60
2022-11-24T01:01:16.832Z,12.00
2022-11-24T01:03:44.525Z,12.00
2022-11-24T01:06:14.020Z,12.57
2022-11-24T01:08:41.909Z,11.70
2022-11-24T01:11:14.745Z,13.67
2022-11-24T01:13:44.070Z,12.43
2022-11-24T01:16:32.667Z,12.10
2022-11-24T01:19:00.827Z,11.87
2022-11-24T01:21:27.724Z,12.60
2022-11-24T01:23:54.560Z,13.27
2022-11-24T01:26:23.121Z,12.20
2022-11-24T01:28:55.601Z,12.57
2022-11-24T01:31:23.754Z,12.10
2022-11-24T01:33:50.948Z,13.20
2022-11-24T01:36:18.370Z,13.00
2022-11-24T01:38:45.285Z,11.77
2022-11-24T01:41:19.958Z,12.23
2022-11-24T01:43:48.232Z,12.70
2022-11-24T01:46:28.038Z,12.40
2022-11-24T01:49:14.087Z,12.17
2022-11-24T01:51:48.894Z,11.70
2022-11-24T01:54:22.724Z,12.50
2022-11-24T01:56:54.913Z,11.20
2022-11-24T01:59:22.372Z,11.83
2022-11-24T02:01:51.502Z,11.90
2022-11-24T02:04:23.850Z,13.10
2022-11-24T02:06:52.241Z,13.17
2022-11-24T02:09:49.082Z,12.40
2022-11-24T02:12:16.003Z,12.10
2022-11-24T02:14:44.811Z,11.73
2022-11-24T02:17:12.067Z,12.33
2022-11-24T02:20:01.094Z,12.30
2022-11-24T02:22:44.246Z,11.93
2022-11-24T02:25:23.017Z,12.27
2022-11-24T02:27:53.848Z,11.67
2022-11-24T02:30:21.549Z,14.13
2022-11-24T02:32:48.512Z,13.00
2022-11-24T02:35:15.643Z,12.80
2022-11-24T02:37:42.554Z,12.47
2022-11-24T02:40:10.285Z,12.40
2022-11-24T02:42:43.191Z,13.40
2022-11-24T02:45:12.194Z,12.47
2022-11-24T02:47:39.144Z,13.17
2022-11-24T02:50:06.646Z,12.90
2022-11-24T02:52:33.505Z,13.20
2022-11-24T02:55:00.401Z,14.67
2022-11-24T02:57:27.273Z,13.50
2022-11-24T02:59:54.133Z,12.90
2022-11-24T03:02:21.227Z,13.80
2022-11-24T03:04:48.081Z,13.93
2022-11-24T03:07:15.151Z,12.97
2022-11-24T03:09:42.069Z,12.30
2022-11-24T03:12:08.881Z,12.77
2022-11-24T03:14:36.023Z,14.23
2022-11-24T03:17:04.067Z,13.27
2022-11-24T03:19:31.081Z,13.23
2022-11-24T03:21:57.968Z,13.07
2022-11-24T03:24:25.074Z,12.67
2022-11-24T03:26:52.066Z,13.17
2022-11-24T03:29:18.971Z,14.20
2022-11-24T03:31:45.992Z,13.30
2022-11-24T03:34:12.915Z,13.20
2022-11-24T03:36:39.796Z,12.20
2022-11-24T03:39:07.121Z,11.93
2022-11-24T03:41:34.210Z,13.13
2022-11-24T03:44:01.198Z,13.30
2022-11-24T03:46:28.202Z,13.57
2022-11-24T03:48:55.085Z,13.03
2022-11-24T03:51:22.043Z,14.27
2022-11-24T03:53:48.879Z,13.23
2022-11-24T03:56:16.284Z,12.97
2022-11-24T03:58:43.187Z,12.80
2022-11-24T04:01:10.152Z,12.63
2022-11-24T04:03:37.031Z,13.80
2022-11-24T04:06:03.924Z,12.20
2022-11-24T04:08:30.916Z,13.20
2022-11-24T04:10:57.884Z,13.43
2022-11-24T04:13:27.277Z,12.37
2022-11-24T04:15:54.382Z,12.17
2022-11-24T04:18:21.877Z,13.63
2022-11-24T04:20:52.490Z,13.77
2022-11-24T04:23:19.768Z,13.77
2022-11-24T04:25:46.697Z,12.67
2022-11-24T04:28:13.684Z,12.00
2022-11-24T04:30:44.645Z,12.80
2022-11-24T04:33:12.427Z,13.77
2022-11-24T04:35:39.434Z,13.10
2022-11-24T04:38:06.327Z,12.70
2022-11-24T04:40:33.209Z,12.50
2022-11-24T04:43:00.133Z,11.60
2022-11-24T04:45:27.149Z,12.80
2022-11-24T04:47:54.044Z,13.20
2022-11-24T04:50:20.980Z,14.00
2022-11-24T04:52:47.934Z,13.97
2022-11-24T04:55:14.887Z,13.73
2022-11-24T04:57:41.805Z,13.50
2022-11-24T05:00:10.359Z,12.83
2022-11-24T05:02:37.452Z,12.33
2022-11-24T05:05:06.522Z,11.97
2022-11-24T05:07:33.646Z,11.60
2022-11-24T05:10:19.073Z,10.70
2022-11-24T05:12:54.024Z,11.30
2022-11-24T05:15:20.966Z,11.60
2022-11-24T05:17:47.943Z,12.90
2022-11-24T05:20:14.973Z,13.80
2022-11-24T05:22:41.856Z,20.67
2022-11-24T05:25:09.235Z,15.87
2022-11-24T05:27:36.846Z,13.83
2022-11-24T05:30:04.881Z,13.00
2022-11-24T05:32:31.850Z,12.53
2022-11-24T05:35:00.628Z,20.90
2022-11-24T05:37:28.894Z,21.67
2022-11-24T05:39:55.853Z,22.67
2022-11-24T05:42:46.635Z,22.80
2022-11-24T05:45:20.981Z,14.27
2022-11-24T05:47:49.812Z,12.53
2022-11-24T05:50:19.345Z,13.13
2022-11-24T05:52:46.266Z,12.73
2022-11-24T05:55:15.094Z,13.23
2022-11-24T05:57:42.435Z,13.43
2022-11-24T06:00:11.433Z,12.10
2022-11-24T06:02:38.436Z,12.30
2022-11-24T06:05:05.641Z,13.37
2022-11-24T06:07:32.594Z,14.40
2022-11-24T06:09:59.544Z,13.83
2022-11-24T06:12:26.403Z,14.23
2022-11-24T06:14:53.472Z,14.70
2022-11-24T06:17:20.345Z,13.07
2022-11-24T06:19:50.068Z,14.30
2022-11-24T06:22:18.873Z,13.80
2022-11-24T06:24:46.891Z,14.03
2022-11-24T06:27:14.556Z,13.03
2022-11-24T06:29:41.498Z,14.87
2022-11-24T06:32:08.846Z,14.53
2022-11-24T06:34:36.353Z,13.90
2022-11-24T06:37:03.397Z,14.93
2022-11-24T06:39:30.236Z,13.27
2022-11-24T06:41:57.241Z,13.87
2022-11-24T06:44:24.352Z,13.93
2022-11-24T06:46:51.293Z,13.80
2022-11-24T06:49:18.197Z,12.67
2022-11-24T06:51:45.108Z,12.27
2022-11-24T06:54:17.274Z,14.17
2022-11-24T06:56:44.283Z,13.73
2022-11-24T06:59:18.548Z,14.50
2022-11-24T07:01:46.068Z,12.93
2022-11-24T07:04:13.408Z,13.67
2022-11-24T07:06:41.288Z,14.50
2022-11-24T07:09:10.343Z,14.60
2022-11-24T07:11:38.028Z,14.20
2022-11-24T07:14:05.525Z,15.00
2022-11-24T07:16:33.035Z,14.70
2022-11-24T07:19:00.481Z,28.73
2022-11-24T07:21:28.999Z,32.53
2022-11-24T07:23:57.497Z,26.37
2022-11-24T07:26:25.475Z,17.20
2022-11-24T07:28:52.850Z,15.70
2022-11-24T07:31:24.854Z,14.70
2022-11-24T07:33:54.400Z,13.83
2022-11-24T07:36:22.290Z,14.13
2022-11-24T07:38:50.147Z,14.47
2022-11-24T07:41:19.809Z,14.20
2022-11-24T07:43:47.885Z,15.60
2022-11-24T07:46:17.769Z,16.43
2022-11-24T07:48:45.160Z,15.33
2022-11-24T07:51:12.673Z,12.83
2022-11-24T07:53:39.745Z,11.30
2022-11-24T07:56:07.258Z,10.93
2022-11-24T07:58:37.409Z,11.30
2022-11-24T08:01:18.831Z,11.00
2022-11-24T08:03:46.851Z,12.90
2022-11-24T08:06:37.490Z,11.67
2022-11-24T08:09:01.594Z,10.83
2022-11-24T08:11:28.636Z,11.10
2022-11-24T08:13:55.581Z,12.47
2022-11-24T08:16:23.362Z,12.33
2022-11-24T08:18:53.284Z,12.77
2022-11-24T08:21:20.659Z,13.43
2022-11-24T08:23:47.616Z,15.93
2022-11-24T08:26:19.191Z,17.40
2022-11-24T08:28:47.354Z,17.77
2022-11-24T08:31:18.770Z,25.10
2022-11-24T08:33:46.365Z,32.07
2022-11-24T08:36:17.181Z,17.37
2022-11-24T08:38:44.911Z,12.23
2022-11-24T08:41:15.551Z,25.63
2022-11-24T08:43:42.674Z,24.23
2022-11-24T08:46:25.124Z,13.77
2022-11-24T08:48:54.134Z,13.57
2022-11-24T08:51:25.056Z,12.20
2022-11-24T08:54:01.845Z,12.43
2022-11-24T08:56:31.258Z,10.90
2022-11-24T08:58:59.187Z,10.77
2022-11-24T09:01:27.358Z,9.33
2022-11-24T09:03:54.456Z,10.97
2022-11-24T09:06:25.841Z,10.87
2022-11-24T09:08:54.751Z,20.07
2022-11-24T09:11:22.271Z,18.90
2022-11-24T09:13:50.070Z,12.43
2022-11-24T09:16:28.892Z,9.97
2022-11-24T09:19:02.207Z,11.23
2022-11-24T09:21:30.695Z,8.93
2022-11-24T09:23:57.987Z,10.57
2022-11-24T09:26:28.882Z,10.20
2022-11-24T09:28:57.601Z,9.70
2022-11-24T09:31:28.576Z,10.40
2022-11-24T09:33:55.915Z,10.30
2022-11-24T09:36:23.872Z,10.23
2022-11-24T09:38:51.003Z,9.07
2022-11-24T09:41:17.892Z,15.57
2022-11-24T09:44:04.405Z,10.33
2022-11-24T09:46:44.494Z,8.63
2022-11-24T09:49:22.601Z,8.67
2022-11-24T09:51:52.198Z,7.83
2022-11-24T09:54:27.389Z,6.70
2022-11-24T09:56:58.025Z,6.13
2022-11-24T09:59:26.267Z,6.70
2022-11-24T10:01:53.818Z,6.63
2022-11-24T10:04:39.631Z,6.17
2022-11-24T10:07:12.461Z,9.17
2022-11-24T10:09:54.321Z,14.27
2022-11-24T10:12:27.561Z,7.57
2022-11-24T10:15:15.629Z,5.20
2022-11-24T10:18:03.898Z,3.20
2022-11-24T10:20:36.378Z,3.47
2022-11-24T10:23:46.790Z,2.90
2022-11-24T10:26:37.511Z,3.03
2022-11-24T10:29:37.312Z,3.27
2022-11-24T10:32:14.381Z,2.87
2022-11-24T10:34:46.051Z,3.60
2022-11-24T10:37:33.603Z,7.47
2022-11-24T10:40:49.122Z,12.27
2022-11-24T10:43:12.388Z,4.30
2022-11-24T10:45:40.169Z,2.73
2022-11-24T10:48:29.396Z,3.10
2022-11-24T10:51:38.906Z,2.80
2022-11-24T10:54:18.019Z,2.60
2022-11-24T10:56:47.009Z,2.43
2022-11-24T10:59:25.348Z,3.30
2022-11-24T11:01:53.317Z,2.90
2022-11-24T11:04:26.340Z,10.60
2022-11-24T11:07:07.747Z,6.83
2022-11-24T11:09:34.908Z,4.70
2022-11-24T11:12:45.351Z,2.83
2022-11-24T11:15:23.405Z,2.57
2022-11-24T11:17:52.649Z,2.40
2022-11-24T11:20:32.625Z,2.77
2022-11-24T11:23:05.014Z,2.60
2022-11-24T11:25:36.447Z,2.47
2022-11-24T11:28:25.434Z,2.70
2022-11-24T11:31:22.144Z,2.60
2022-11-24T11:34:26.699Z,3.33
2022-11-24T11:37:04.789Z,2.07
2022-11-24T11:39:51.941Z,2.20
2022-11-24T11:45:35.806Z,2.53
2022-11-24T11:48:03.089Z,2.50
2022-11-24T11:51:21.157Z,2.73
2022-11-24T11:53:53.331Z,3.10
2022-11-24T11:56:30.497Z,3.40
2022-11-24T11:59:44.128Z,12.20
2022-11-24T12:02:49.972Z,6.20
2022-11-24T12:05:57.307Z,2.30
2022-11-24T12:08:28.269Z,2.37
2022-11-24T12:11:22.638Z,2.03
2022-11-24T12:14:03.365Z,3.40
2022-11-24T12:16:59.303Z,2.60
2022-11-24T12:19:53.757Z,2.73
2022-11-24T12:22:36.165Z,2.80
2022-11-24T12:25:22.038Z,3.03
2022-11-24T12:28:49.427Z,3.20
2022-11-24T12:31:22.971Z,3.27
2022-11-24T12:34:10.403Z,3.23
2022-11-24T12:37:03.003Z,4.07
2022-11-24T12:39:57.176Z,3.80
2022-11-24T12:42:37.832Z,10.70
2022-11-24T12:45:15.412Z,4.70
2022-11-24T12:48:07.807Z,3.70
2022-11-24T12:50:39.754Z,4.43
2022-11-24T12:53:16.301Z,4.53
2022-11-24T12:55:44.280Z,4.00
2022-11-24T12:58:50.225Z,4.13
2022-11-24T13:01:35.384Z,4.43
2022-11-24T13:04:20.434Z,4.67
2022-11-24T13:07:01.592Z,3.47
2022-11-24T13:09:28.484Z,3.83
2022-11-24T13:12:12.790Z,4.13
2022-11-24T13:14:43.630Z,4.30
2022-11-24T13:17:43.483Z,8.20
2022-11-24T13:20:20.940Z,5.50
2022-11-24T13:22:53.506Z,5.27
2022-11-24T13:25:33.001Z,3.43
2022-11-24T13:28:06.623Z,4.13
2022-11-24T13:30:33.360Z,4.33
2022-11-24T13:33:30.396Z,4.57
2022-11-24T13:36:23.213Z,4.60
2022-11-24T13:38:50.185Z,7.43
2022-11-24T13:41:32.392Z,8.27
2022-11-24T13:44:17.162Z,4.97
2022-11-24T13:47:26.052Z,4.90
2022-11-24T13:49:52.971Z,4.37
2022-11-24T13:52:38.678Z,5.67
2022-11-24T13:55:11.823Z,6.17
2022-11-24T13:57:42.129Z,7.17
2022-11-24T14:00:34.113Z,7.30
2022-11-24T14:03:19.775Z,28.80
2022-11-24T14:05:50.985Z,6.10
2022-11-24T14:08:35.377Z,4.57
2022-11-24T14:11:04.571Z,5.00
2022-11-24T14:13:33.267Z,4.90
2022-11-24T14:16:02.792Z,4.17
2022-11-24T14:18:31.365Z,4.00
2022-11-24T14:21:01.114Z,4.50
2022-11-24T14:23:28.335Z,4.73
2022-11-24T14:25:55.274Z,4.33
2022-11-24T14:28:26.032Z,3.70
2022-11-24T14:31:09.078Z,4.00
2022-11-24T14:33:37.193Z,4.33
2022-11-24T14:36:04.434Z,3.93
2022-11-24T14:38:31.377Z,3.77
2022-11-24T14:41:23.380Z,4.10
2022-11-24T14:43:50.276Z,4.07
2022-11-24T14:46:20.765Z,5.67
2022-11-24T14:48:53.161Z,4.60
2022-11-24T14:51:28.833Z,3.80
2022-11-24T14:54:02.970Z,4.37
2022-11-24T14:56:37.769Z,3.83
2022-11-24T14:59:21.021Z,4.70
2022-11-24T15:01:47.938Z,3.57
2022-11-24T15:04:46.390Z,4.03
2022-11-24T15:07:26.479Z,4.60
2022-11-24T15:09:59.562Z,5.13
2022-11-24T15:12:54.923Z,5.20
2022-11-24T15:15:37.453Z,5.20
2022-11-24T15:18:06.313Z,4.80
2022-11-24T15:20:41.617Z,4.30
2022-11-24T15:23:31.677Z,4.80
2022-11-24T15:26:18.466Z,5.87
2022-11-24T15:28:48.567Z,5.67
2022-11-24T15:31:15.533Z,10.73
2022-11-24T15:33:42.583Z,9.10
2022-11-24T15:36:11.579Z,5.90
2022-11-24T15:38:38.488Z,5.77
2022-11-24T15:41:20.772Z,4.60
2022-11-24T15:43:47.984Z,5.03
2022-11-24T15:46:14.973Z,5.00
2022-11-24T15:48:41.999Z,4.70
2022-11-24T15:51:14.354Z,5.27
2022-11-24T15:53:47.297Z,4.20
2022-11-24T15:56:33.134Z,5.57
2022-11-24T15:59:01.407Z,4.73
2022-11-24T16:01:32.468Z,4.83
2022-11-24T16:04:00.661Z,4.53
2022-11-24T16:06:27.651Z,5.93
2022-11-24T16:08:54.949Z,5.13
2022-11-24T16:11:22.798Z,4.53
2022-11-24T16:13:53.315Z,4.60
2022-11-24T16:16:22.730Z,4.67
2022-11-24T16:18:50.044Z,4.13
2022-11-24T16:21:17.269Z,5.63
2022-11-24T16:23:44.297Z,7.60
2022-11-24T16:26:11.243Z,7.30
2022-11-24T16:28:38.125Z,4.20
2022-11-24T16:31:05.043Z,4.40
2022-11-24T16:33:32.004Z,4.73
2022-11-24T16:35:58.931Z,4.63
2022-11-24T16:38:25.827Z,4.13
2022-11-24T16:40:59.169Z,3.37
2022-11-24T16:43:28.753Z,4.00
2022-11-24T16:46:16.026Z,4.30
2022-11-24T16:48:47.236Z,5.00
2022-11-24T16:51:15.414Z,4.20
2022-11-24T16:53:43.389Z,7.13
2022-11-24T16:56:10.946Z,3.80
2022-11-24T16:58:42.879Z,4.13
2022-11-24T17:01:14.237Z,3.30
2022-11-24T17:03:41.759Z,4.13
2022-11-24T17:06:15.806Z,3.77
2022-11-24T17:08:44.930Z,4.00
2022-11-24T17:11:21.476Z,3.23
2022-11-24T17:13:51.578Z,3.30
2022-11-24T17:16:21.555Z,3.47
2022-11-24T17:18:49.160Z,3.20
2022-11-24T17:21:22.364Z,3.27
2022-11-24T17:23:57.670Z,4.10
2022-11-24T17:26:25.399Z,3.50
2022-11-24T17:28:52.642Z,3.33
2022-11-24T17:31:35.717Z,3.87
2022-11-24T17:34:05.301Z,3.37
2022-11-24T17:36:35.622Z,3.70
2022-11-24T17:39:05.705Z,3.57
2022-11-24T17:41:33.271Z,2.90
2022-11-24T17:44:00.247Z,3.00
2022-11-24T17:46:29.179Z,3.27
2022-11-24T17:48:56.765Z,2.90
2022-11-24T17:51:25.814Z,3.03
2022-11-24T17:53:54.890Z,2.87
2022-11-24T17:56:32.390Z,3.80
2022-11-24T17:59:01.034Z,8.17
2022-11-24T18:01:46.124Z,13.40
2022-11-24T18:04:21.440Z,4.07
2022-11-24T18:06:50.849Z,3.63
2022-11-24T18:09:20.197Z,3.53
2022-11-24T18:11:47.861Z,2.87
2022-11-24T18:14:14.835Z,3.60
2022-11-24T18:16:41.866Z,3.10
2022-11-24T18:19:12.238Z,3.77
2022-11-24T18:21:44.832Z,3.37
2022-11-24T18:24:17.479Z,3.83
2022-11-24T18:26:50.752Z,3.30
2022-11-24T18:29:17.836Z,3.60
2022-11-24T18:31:45.046Z,3.40
2022-11-24T18:34:12.197Z,3.50
2022-11-24T18:36:49.814Z,3.20
2022-11-24T18:39:21.178Z,3.40
2022-11-24T18:41:48.328Z,3.40
2022-11-24T18:44:18.707Z,3.63
2022-11-24T18:46:49.550Z,3.20
2022-11-24T18:49:16.768Z,3.13
2022-11-24T18:51:52.440Z,3.40
2022-11-24T18:54:25.729Z,4.70
2022-11-24T18:57:00.225Z,12.47
2022-11-24T18:59:36.926Z,5.50
2022-11-24T19:02:04.076Z,3.10
2022-11-24T19:04:32.833Z,3.70
2022-11-24T19:07:02.896Z,4.10
2022-11-24T19:09:29.961Z,4.53
2022-11-24T19:11:56.927Z,4.40
2022-11-24T19:14:23.871Z,15.87
2022-11-24T19:16:51.241Z,10.33
2022-11-24T19:19:18.636Z,5.80
2022-11-24T19:21:47.797Z,4.27
2022-11-24T19:24:14.765Z,5.40
2022-11-24T19:26:41.736Z,5.47
2022-11-24T19:29:08.788Z,5.70
2022-11-24T19:31:36.239Z,7.80
2022-11-24T19:34:05.472Z,7.63
2022-11-24T19:36:32.493Z,6.63
2022-11-24T19:38:59.756Z,6.63
2022-11-24T19:41:30.281Z,5.90
2022-11-24T19:43:58.650Z,5.20
2022-11-24T19:46:29.420Z,5.90
2022-11-24T19:49:00.837Z,6.87
2022-11-24T19:51:31.337Z,7.17
2022-11-24T19:53:58.978Z,6.80
2022-11-24T19:56:28.933Z,7.50
2022-11-24T19:58:57.142Z,5.70
2022-11-24T20:01:30.384Z,5.20
2022-11-24T20:04:04.513Z,6.30
2022-11-24T20:06:38.261Z,6.07
2022-11-24T20:09:08.915Z,5.70
2022-11-24T20:11:36.728Z,6.60
2022-11-24T20:14:04.731Z,6.50
2022-11-24T20:16:34.803Z,6.43
2022-11-24T20:19:09.284Z,7.10
2022-11-24T20:21:38.568Z,6.80
2022-11-24T20:24:08.503Z,6.37
2022-11-24T20:26:46.009Z,7.63
2022-11-24T20:29:14.397Z,7.10
2022-11-24T20:31:51.197Z,7.00
2022-11-24T20:34:19.330Z,7.30
2022-11-24T20:36:47.398Z,7.33
2022-11-24T20:39:21.781Z,7.90
2022-11-24T20:41:49.380Z,8.50
2022-11-24T20:44:19.550Z,8.33
2022-11-24T20:46:46.690Z,7.93
2022-11-24T20:49:18.569Z,9.30
2022-11-24T20:51:49.267Z,9.07
2022-11-24T20:54:17.986Z,9.13
2022-11-24T20:56:46.401Z,9.33
2022-11-24T20:59:16.682Z,9.77
2022-11-24T21:01:45.786Z,9.50
2022-11-24T21:04:20.219Z,8.20
2022-11-24T21:06:47.426Z,7.40
2022-11-24T21:09:14.609Z,7.43
2022-11-24T21:11:42.392Z,7.07
2022-11-24T21:14:10.758Z,7.97
2022-11-24T21:16:40.385Z,7.53
2022-11-24T21:19:13.635Z,7.30
2022-11-24T21:21:42.655Z,7.37
2022-11-24T21:24:18.342Z,7.57
2022-11-24T21:26:47.809Z,7.03
2022-11-24T21:29:18.861Z,7.70
2022-11-24T21:31:46.170Z,7.50
2022-11-24T21:34:16.748Z,6.97
2022-11-24T21:36:45.154Z,8.80
2022-11-24T21:39:13.751Z,8.37
2022-11-24T21:41:41.252Z,9.33
2022-11-24T21:44:08.898Z,8.23
2022-11-24T21:46:43.579Z,7.10
2022-11-24T21:49:13.210Z,8.50
2022-11-24T21:51:40.092Z,7.70
2022-11-24T21:54:07.190Z,8.37
2022-11-24T21:56:34.496Z,7.50
2022-11-24T21:59:01.383Z,8.50
2022-11-24T22:01:29.522Z,8.53
2022-11-24T22:03:56.669Z,8.20
2022-11-24T22:06:23.977Z,7.93
2022-11-24T22:08:51.124Z,7.50
2022-11-24T22:11:21.728Z,7.37
2022-11-24T22:13:49.582Z,6.80
2022-11-24T22:16:20.522Z,7.47
2022-11-24T22:18:48.210Z,6.37
2022-11-24T22:21:23.805Z,6.77
2022-11-24T22:23:54.849Z,9.87
2022-11-24T22:26:25.062Z,9.17
2022-11-24T22:28:53.285Z,9.37
2022-11-24T22:31:23.535Z,9.60
2022-11-24T22:33:51.616Z,9.17
2022-11-24T22:36:20.893Z,10.43
2022-11-24T22:38:48.426Z,10.87
2022-11-24T22:41:18.965Z,9.40
2022-11-24T22:43:46.745Z,10.23
2022-11-24T22:46:19.357Z,10.17
2022-11-24T22:48:48.286Z,9.50
2022-11-24T22:51:21.915Z,10.30
2022-11-24T22:53:51.858Z,10.50
2022-11-24T22:56:19.921Z,10.50
2022-11-24T22:58:47.717Z,11.37
2022-11-24T23:01:18.174Z,10.30
2022-11-24T23:03:45.605Z,10.67
2022-11-24T23:06:21.667Z,9.53
2022-11-24T23:08:50.010Z,11.40
2022-11-24T23:11:32.724Z,12.90
2022-11-24T23:14:02.607Z,10.20
2022-11-24T23:16:30.144Z,9.83
2022-11-24T23:18:57.839Z,11.00
2022-11-24T23:21:31.141Z,9.30
2022-11-24T23:24:03.404Z,9.40
2022-11-24T23:26:34.212Z,10.10
2022-11-24T23:29:01.579Z,9.77
2022-11-24T23:31:29.215Z,9.23
2022-11-24T23:33:58.463Z,9.37
2022-11-24T23:36:26.012Z,9.10
2022-11-24T23:38:53.151Z,7.60
2022-11-24T23:41:24.862Z,8.60
2022-11-24T23:43:52.684Z,8.80
2022-11-24T23:46:23.640Z,8.37
2022-11-24T23:48:52.742Z,8.77
2022-11-24T23:51:26.176Z,7.00
2022-11-24T23:53:53.991Z,8.77
2022-11-24T23:56:24.459Z,8.43
2022-11-24T23:58:52.276Z,8.27
